TimePDT,TemperatureF,Dew PointF,Humidity,Sea Level PressureIn,VisibilityMPH,Wind Direction,Wind SpeedMPH,Gust SpeedMPH,PrecipitationIn,Events,Conditions,WindDirDegrees,DateUTC
12:53 AM,57.0,39.9,53,30.11,10.0,South,8.1,-,N/A,,Overcast,180,2013-04-28 07:53:00
1:53 AM,57.9,39.9,51,30.11,10.0,SSW,10.4,-,N/A,,Overcast,210,2013-04-28 08:53:00
2:53 AM,55.9,41.0,57,30.12,10.0,SSW,9.2,-,N/A,,Overcast,210,2013-04-28 09:53:00
3:53 AM,55.9,39.9,55,30.12,10.0,SSW,10.4,-,N/A,,Overcast,210,2013-04-28 10:53:00
4:53 AM,55.0,39.9,57,30.13,10.0,SSW,9.2,-,N/A,,Overcast,210,2013-04-28 11:53:00
6:53 AM,54.0,41.0,62,30.14,10.0,SSW,11.5,-,N/A,,Overcast,200,2013-04-28 13:53:00
7:53 AM,54.0,42.1,64,30.15,10.0,South,9.2,-,N/A,,Overcast,190,2013-04-28 14:53:00
8:53 AM,57.0,43.0,59,30.15,10.0,SSW,12.7,-,N/A,,Overcast,210,2013-04-28 15:53:00
9:53 AM,59.0,43.0,55,30.14,10.0,South,13.8,20.7,N/A,,Mostly Cloudy,190,2013-04-28 16:53:00
10:53 AM,62.1,41.0,46,30.14,10.0,SW,16.1,26.5,N/A,,Scattered Clouds,230,2013-04-28 17:53:00
11:53 AM,63.0,37.9,40,30.13,10.0,WSW,20.7,28.8,N/A,,Mostly Cloudy,240,2013-04-28 18:53:00
12:53 PM,66.0,37.0,34,30.11,10.0,WSW,23.0,29.9,N/A,,Mostly Cloudy,240,2013-04-28 19:53:00
1:53 PM,66.0,37.0,34,30.10,10.0,WSW,20.7,27.6,N/A,,Partly Cloudy,240,2013-04-28 20:53:00
2:53 PM,66.9,35.1,31,30.07,10.0,WSW,19.6,32.2,N/A,,Partly Cloudy,240,2013-04-28 21:53:00
3:53 PM,66.9,30.0,25,30.04,10.0,WSW,21.9,31.1,N/A,,Clear,250,2013-04-28 22:53:00
4:53 PM,66.9,30.9,26,30.03,10.0,WSW,23.0,31.1,N/A,,Clear,240,2013-04-28 23:53:00
5:53 PM,64.0,33.1,31,30.02,10.0,WSW,19.6,28.8,N/A,,Clear,240,2013-04-29 00:53:00
6:53 PM,62.1,35.1,37,30.02,10.0,SW,16.1,-,N/A,,Clear,230,2013-04-29 01:53:00
7:53 PM,60.1,34.0,38,30.01,10.0,SW,15.0,25.3,N/A,,Scattered Clouds,220,2013-04-29 02:53:00
8:53 PM,57.9,36.0,44,30.02,10.0,South,12.7,-,N/A,,Overcast,180,2013-04-29 03:53:00
9:53 PM,57.9,36.0,44,30.00,10.0,SSW,15.0,-,N/A,,Scattered Clouds,200,2013-04-29 04:53:00
10:53 PM,57.0,36.0,45,29.98,10.0,SSW,13.8,-,N/A,,Overcast,210,2013-04-29 05:53:00
11:53 PM,57.0,37.0,47,29.97,10.0,South,13.8,-,N/A,,Overcast,190,2013-04-29 06:53:00